sensor_id;sensor_type;location;lat;lon;timestamp;temperature;humidity
7512;DHT22;9999;48.780;9.146;2022-08-19T00:00:50;20.90;99.90
7512;DHT22;9999;48.780;9.146;2022-08-19T00:03:17;20.90;99.90
7512;DHT22;9999;48.780;9.146;2022-08-19T00:05:44;20.90;99.90
7512;DHT22;9999;48.780;9.146;2022-08-19T00:08:11;20.90;99.90
7512;DHT22;9999;48.780;9.146;2022-08-19T00:10:38;20.90;99.90
7512;DHT22;9999;48.780;9.146;2022-08-19T00:13:04;20.80;99.90
7512;DHT22;9999;48.780;9.146;2022-08-19T00:15:33;20.80;99.90
7512;DHT22;9999;48.780;9.146;2022-08-19T00:17:59;20.80;99.90
7512;DHT22;9999;48.780;9.146;2022-08-19T00:20:26;20.70;99.90
7512;DHT22;9999;48.780;9.146;2022-08-19T00:22:53;20.70;99.90
7512;DHT22;9999;48.780;9.146;2022-08-19T00:25:21;20.80;99.90
7512;DHT22;9999;48.780;9.146;2022-08-19T00:27:47;20.70;99.90
7512;DHT22;9999;48.780;9.146;2022-08-19T00:30:14;20.70;99.90
7512;DHT22;9999;48.780;9.146;2022-08-19T00:32:43;20.60;99.90
7512;DHT22;9999;48.780;9.146;2022-08-19T00:35:09;20.70;99.90
7512;DHT22;9999;48.780;9.146;2022-08-19T00:37:37;20.70;99.90
7512;DHT22;9999;48.780;9.146;2022-08-19T00:40:07;20.60;99.90
7512;DHT22;9999;48.780;9.146;2022-08-19T00:42:34;20.70;99.90
7512;DHT22;9999;48.780;9.146;2022-08-19T00:45:01;20.70;99.90
7512;DHT22;9999;48.780;9.146;2022-08-19T00:47:28;20.70;99.90
7512;DHT22;9999;48.780;9.146;2022-08-19T00:49:57;20.70;99.90
7512;DHT22;9999;48.780;9.146;2022-08-19T00:52:27;20.70;99.90
7512;DHT22;9999;48.780;9.146;2022-08-19T00:54:56;20.70;99.90
7512;DHT22;9999;48.780;9.146;2022-08-19T00:57:27;20.60;99.90
7512;DHT22;9999;48.780;9.146;2022-08-19T00:59:56;20.60;99.90
7512;DHT22;9999;48.780;9.146;2022-08-19T01:02:23;20.70;99.90
7512;DHT22;9999;48.780;9.146;2022-08-19T01:04:50;20.70;99.90
7512;DHT22;9999;48.780;9.146;2022-08-19T01:07:18;20.70;99.90
7512;DHT22;9999;48.780;9.146;2022-08-19T01:09:46;20.70;99.90
7512;DHT22;9999;48.780;9.146;2022-08-19T01:12:13;20.70;99.90
7512;DHT22;9999;48.780;9.146;2022-08-19T01:14:40;20.70;99.90
7512;DHT22;9999;48.780;9.146;2022-08-19T01:17:10;20.70;99.90
7512;DHT22;9999;48.780;9.146;2022-08-19T01:19:40;20.70;99.90
7512;DHT22;9999;48.780;9.146;2022-08-19T01:22:12;20.70;99.90
7512;DHT22;9999;48.780;9.146;2022-08-19T01:24:42;20.70;99.90
7512;DHT22;9999;48.780;9.146;2022-08-19T01:27:09;20.70;99.90
7512;DHT22;9999;48.780;9.146;2022-08-19T01:29:39;20.60;99.90
7512;DHT22;9999;48.780;9.146;2022-08-19T01:32:07;20.60;99.90
7512;DHT22;9999;48.780;9.146;2022-08-19T01:34:35;20.60;99.90
7512;DHT22;9999;48.780;9.146;2022-08-19T01:37:06;20.60;99.90
7512;DHT22;9999;48.780;9.146;2022-08-19T01:39:37;20.60;99.90
7512;DHT22;9999;48.780;9.146;2022-08-19T01:42:06;20.60;99.90
7512;DHT22;9999;48.780;9.146;2022-08-19T01:44:36;20.60;99.90
7512;DHT22;9999;48.780;9.146;2022-08-19T01:47:03;20.60;99.90
7512;DHT22;9999;48.780;9.146;2022-08-19T01:49:30;20.60;99.90
7512;DHT22;9999;48.780;9.146;2022-08-19T01:51:59;20.60;99.90
7512;DHT22;9999;48.780;9.146;2022-08-19T01:54:26;20.50;99.90
7512;DHT22;9999;48.780;9.146;2022-08-19T01:56:57;20.50;99.90
7512;DHT22;9999;48.780;9.146;2022-08-19T01:59:25;20.50;99.90
7512;DHT22;9999;48.780;9.146;2022-08-19T02:01:52;20.40;99.90
7512;DHT22;9999;48.780;9.146;2022-08-19T02:04:19;20.40;99.90
7512;DHT22;9999;48.780;9.146;2022-08-19T02:06:46;20.40;99.90
7512;DHT22;9999;48.780;9.146;2022-08-19T02:09:13;20.40;99.90
7512;DHT22;9999;48.780;9.146;2022-08-19T02:11:42;20.40;99.90
7512;DHT22;9999;48.780;9.146;2022-08-19T02:14:08;20.40;99.90
7512;DHT22;9999;48.780;9.146;2022-08-19T02:16:36;20.40;99.90
7512;DHT22;9999;48.780;9.146;2022-08-19T02:19:04;20.30;99.90
7512;DHT22;9999;48.780;9.146;2022-08-19T02:21:31;20.20;99.90
7512;DHT22;9999;48.780;9.146;2022-08-19T02:23:59;20.30;99.90
7512;DHT22;9999;48.780;9.146;2022-08-19T02:26:26;20.30;99.90
7512;DHT22;9999;48.780;9.146;2022-08-19T02:28:53;20.30;99.90
7512;DHT22;9999;48.780;9.146;2022-08-19T02:31:22;20.20;99.90
7512;DHT22;9999;48.780;9.146;2022-08-19T02:33:50;20.20;99.90
7512;DHT22;9999;48.780;9.146;2022-08-19T02:36:18;20.20;99.90
7512;DHT22;9999;48.780;9.146;2022-08-19T02:38:45;20.20;99.90
7512;DHT22;9999;48.780;9.146;2022-08-19T02:41:14;20.20;99.90
7512;DHT22;9999;48.780;9.146;2022-08-19T02:43:41;20.20;99.90
7512;DHT22;9999;48.780;9.146;2022-08-19T02:46:13;20.30;99.90
7512;DHT22;9999;48.780;9.146;2022-08-19T02:48:40;20.20;99.90
7512;DHT22;9999;48.780;9.146;2022-08-19T02:51:08;20.20;99.90
7512;DHT22;9999;48.780;9.146;2022-08-19T02:53:35;20.20;99.90
7512;DHT22;9999;48.780;9.146;2022-08-19T02:56:06;20.20;99.90
7512;DHT22;9999;48.780;9.146;2022-08-19T02:58:33;20.20;99.90
7512;DHT22;9999;48.780;9.146;2022-08-19T03:01:00;20.20;99.90
7512;DHT22;9999;48.780;9.146;2022-08-19T03:03:27;20.10;99.90
7512;DHT22;9999;48.780;9.146;2022-08-19T03:06:11;20.00;99.90
7512;DHT22;9999;48.780;9.146;2022-08-19T03:08:39;20.00;99.90
7512;DHT22;9999;48.780;9.146;2022-08-19T03:11:13;19.90;99.90
7512;DHT22;9999;48.780;9.146;2022-08-19T03:13:40;19.90;99.90
7512;DHT22;9999;48.780;9.146;2022-08-19T03:16:09;19.90;99.90
7512;DHT22;9999;48.780;9.146;2022-08-19T03:18:36;20.00;99.90
7512;DHT22;9999;48.780;9.146;2022-08-19T03:21:03;20.00;99.90
7512;DHT22;9999;48.780;9.146;2022-08-19T03:23:32;20.00;99.90
7512;DHT22;9999;48.780;9.146;2022-08-19T03:26:02;19.90;99.90
7512;DHT22;9999;48.780;9.146;2022-08-19T03:28:30;19.90;99.90
7512;DHT22;9999;48.780;9.146;2022-08-19T03:30:59;19.90;99.90
7512;DHT22;9999;48.780;9.146;2022-08-19T03:33:27;19.90;99.90
7512;DHT22;9999;48.780;9.146;2022-08-19T03:36:06;19.80;99.90
7512;DHT22;9999;48.780;9.146;2022-08-19T03:38:36;19.80;99.90
7512;DHT22;9999;48.780;9.146;2022-08-19T03:41:05;19.90;99.90
7512;DHT22;9999;48.780;9.146;2022-08-19T03:43:34;19.80;99.90
7512;DHT22;9999;48.780;9.146;2022-08-19T03:46:03;19.80;99.90
7512;DHT22;9999;48.780;9.146;2022-08-19T03:48:31;19.70;99.90
7512;DHT22;9999;48.780;9.146;2022-08-19T03:50:58;19.60;99.90
7512;DHT22;9999;48.780;9.146;2022-08-19T03:53:26;19.60;99.90
7512;DHT22;9999;48.780;9.146;2022-08-19T03:55:55;19.60;99.90
7512;DHT22;9999;48.780;9.146;2022-08-19T03:58:22;19.60;99.90
7512;DHT22;9999;48.780;9.146;2022-08-19T04:00:49;19.60;99.90
7512;DHT22;9999;48.780;9.146;2022-08-19T04:03:16;19.70;99.90
7512;DHT22;9999;48.780;9.146;2022-08-19T04:05:44;19.60;99.90
7512;DHT22;9999;48.780;9.146;2022-08-19T04:08:11;19.50;99.90
7512;DHT22;9999;48.780;9.146;2022-08-19T04:10:38;19.50;99.90
7512;DHT22;9999;48.780;9.146;2022-08-19T04:13:07;19.50;99.90
7512;DHT22;9999;48.780;9.146;2022-08-19T04:15:39;19.50;99.90
7512;DHT22;9999;48.780;9.146;2022-08-19T04:18:07;19.60;99.90
7512;DHT22;9999;48.780;9.146;2022-08-19T04:20:39;19.50;99.90
7512;DHT22;9999;48.780;9.146;2022-08-19T04:23:06;19.50;99.90
7512;DHT22;9999;48.780;9.146;2022-08-19T04:25:36;19.50;99.90
7512;DHT22;9999;48.780;9.146;2022-08-19T04:28:03;19.50;99.90
7512;DHT22;9999;48.780;9.146;2022-08-19T04:30:37;19.50;99.90
7512;DHT22;9999;48.780;9.146;2022-08-19T04:33:04;19.50;99.90
7512;DHT22;9999;48.780;9.146;2022-08-19T04:35:35;19.50;99.90
7512;DHT22;9999;48.780;9.146;2022-08-19T04:38:02;19.50;99.90
7512;DHT22;9999;48.780;9.146;2022-08-19T04:40:29;19.50;99.90
7512;DHT22;9999;48.780;9.146;2022-08-19T04:43:13;19.40;99.90
7512;DHT22;9999;48.780;9.146;2022-08-19T04:45:42;19.40;99.90
7512;DHT22;9999;48.780;9.146;2022-08-19T04:48:09;19.40;99.90
7512;DHT22;9999;48.780;9.146;2022-08-19T04:50:38;19.40;99.90
7512;DHT22;9999;48.780;9.146;2022-08-19T04:53:05;19.40;99.90
7512;DHT22;9999;48.780;9.146;2022-08-19T04:55:32;19.40;99.90
7512;DHT22;9999;48.780;9.146;2022-08-19T04:58:01;19.40;99.90
7512;DHT22;9999;48.780;9.146;2022-08-19T05:00:28;19.40;99.90
7512;DHT22;9999;48.780;9.146;2022-08-19T05:02:56;19.40;99.90
7512;DHT22;9999;48.780;9.146;2022-08-19T05:05:23;19.50;99.90
7512;DHT22;9999;48.780;9.146;2022-08-19T05:07:50;19.50;99.90
7512;DHT22;9999;48.780;9.146;2022-08-19T05:10:16;19.40;99.90
7512;DHT22;9999;48.780;9.146;2022-08-19T05:12:43;19.40;99.90
7512;DHT22;9999;48.780;9.146;2022-08-19T05:15:10;19.40;99.90
7512;DHT22;9999;48.780;9.146;2022-08-19T05:17:37;19.40;99.90
7512;DHT22;9999;48.780;9.146;2022-08-19T05:20:25;19.40;99.90
7512;DHT22;9999;48.780;9.146;2022-08-19T05:23:10;19.40;99.90
7512;DHT22;9999;48.780;9.146;2022-08-19T05:25:40;19.40;99.90
7512;DHT22;9999;48.780;9.146;2022-08-19T05:28:07;19.40;99.90
7512;DHT22;9999;48.780;9.146;2022-08-19T05:30:33;19.50;99.90
7512;DHT22;9999;48.780;9.146;2022-08-19T05:33:00;19.60;99.90
7512;DHT22;9999;48.780;9.146;2022-08-19T05:35:28;19.50;99.90
7512;DHT22;9999;48.780;9.146;2022-08-19T05:37:56;19.50;99.90
7512;DHT22;9999;48.780;9.146;2022-08-19T05:40:23;19.50;99.90
7512;DHT22;9999;48.780;9.146;2022-08-19T05:42:49;19.50;99.90
7512;DHT22;9999;48.780;9.146;2022-08-19T05:45:17;19.50;99.90
7512;DHT22;9999;48.780;9.146;2022-08-19T05:47:44;19.50;99.90
7512;DHT22;9999;48.780;9.146;2022-08-19T05:50:11;19.60;99.90
7512;DHT22;9999;48.780;9.146;2022-08-19T05:52:39;19.60;99.90
7512;DHT22;9999;48.780;9.146;2022-08-19T05:55:07;19.60;99.90
7512;DHT22;9999;48.780;9.146;2022-08-19T05:57:33;19.60;99.90
7512;DHT22;9999;48.780;9.146;2022-08-19T06:00:00;19.60;99.90
7512;DHT22;9999;48.780;9.146;2022-08-19T06:02:37;19.60;99.90
7512;DHT22;9999;48.780;9.146;2022-08-19T06:05:05;19.60;99.90
7512;DHT22;9999;48.780;9.146;2022-08-19T06:07:34;19.50;99.90
7512;DHT22;9999;48.780;9.146;2022-08-19T06:10:02;19.50;99.90
7512;DHT22;9999;48.780;9.146;2022-08-19T06:12:29;19.50;99.90
7512;DHT22;9999;48.780;9.146;2022-08-19T06:14:59;19.60;99.90
7512;DHT22;9999;48.780;9.146;2022-08-19T06:17:26;19.60;99.90
7512;DHT22;9999;48.780;9.146;2022-08-19T06:19:52;19.60;99.90
7512;DHT22;9999;48.780;9.146;2022-08-19T06:22:19;19.70;99.90
7512;DHT22;9999;48.780;9.146;2022-08-19T06:24:46;19.70;99.90
7512;DHT22;9999;48.780;9.146;2022-08-19T06:27:14;19.70;99.90
7512;DHT22;9999;48.780;9.146;2022-08-19T06:29:41;19.80;99.90
7512;DHT22;9999;48.780;9.146;2022-08-19T06:32:08;19.80;99.90
7512;DHT22;9999;48.780;9.146;2022-08-19T06:34:36;19.80;99.90
7512;DHT22;9999;48.780;9.146;2022-08-19T06:37:03;19.80;99.90
7512;DHT22;9999;48.780;9.146;2022-08-19T06:39:33;19.80;99.90
7512;DHT22;9999;48.780;9.146;2022-08-19T06:42:02;19.90;99.90
7512;DHT22;9999;48.780;9.146;2022-08-19T06:44:35;19.80;99.90
7512;DHT22;9999;48.780;9.146;2022-08-19T06:47:04;19.80;99.90
7512;DHT22;9999;48.780;9.146;2022-08-19T06:49:32;19.70;99.90
7512;DHT22;9999;48.780;9.146;2022-08-19T06:51:59;19.70;99.90
7512;DHT22;9999;48.780;9.146;2022-08-19T06:54:27;19.70;99.90
7512;DHT22;9999;48.780;9.146;2022-08-19T06:56:55;19.70;99.90
7512;DHT22;9999;48.780;9.146;2022-08-19T06:59:23;19.70;99.90
7512;DHT22;9999;48.780;9.146;2022-08-19T07:01:55;19.70;99.90
7512;DHT22;9999;48.780;9.146;2022-08-19T07:04:24;19.70;99.90
7512;DHT22;9999;48.780;9.146;2022-08-19T07:06:57;19.60;99.90
7512;DHT22;9999;48.780;9.146;2022-08-19T07:09:26;19.60;99.90
7512;DHT22;9999;48.780;9.146;2022-08-19T07:11:53;19.60;99.90
7512;DHT22;9999;48.780;9.146;2022-08-19T07:14:22;19.50;99.90
7512;DHT22;9999;48.780;9.146;2022-08-19T07:16:52;19.60;99.90
7512;DHT22;9999;48.780;9.146;2022-08-19T07:19:23;19.60;99.90
7512;DHT22;9999;48.780;9.146;2022-08-19T07:21:52;19.60;99.90
7512;DHT22;9999;48.780;9.146;2022-08-19T07:24:20;19.60;99.90
7512;DHT22;9999;48.780;9.146;2022-08-19T07:26:50;19.70;99.90
7512;DHT22;9999;48.780;9.146;2022-08-19T07:29:18;19.80;99.90
7512;DHT22;9999;48.780;9.146;2022-08-19T07:31:45;19.80;99.90
7512;DHT22;9999;48.780;9.146;2022-08-19T07:34:13;19.70;99.90
7512;DHT22;9999;48.780;9.146;2022-08-19T07:36:42;19.50;99.90
7512;DHT22;9999;48.780;9.146;2022-08-19T07:39:13;19.60;99.90
7512;DHT22;9999;48.780;9.146;2022-08-19T07:41:40;19.60;99.90
7512;DHT22;9999;48.780;9.146;2022-08-19T07:44:08;19.60;99.90
7512;DHT22;9999;48.780;9.146;2022-08-19T07:46:37;19.50;99.90
7512;DHT22;9999;48.780;9.146;2022-08-19T07:49:07;19.40;99.90
7512;DHT22;9999;48.780;9.146;2022-08-19T07:51:36;19.40;99.90
7512;DHT22;9999;48.780;9.146;2022-08-19T07:54:04;19.50;99.90
7512;DHT22;9999;48.780;9.146;2022-08-19T07:56:31;19.50;99.90
7512;DHT22;9999;48.780;9.146;2022-08-19T07:58:58;19.50;99.90
7512;DHT22;9999;48.780;9.146;2022-08-19T08:01:26;19.60;99.90
7512;DHT22;9999;48.780;9.146;2022-08-19T08:03:55;19.60;99.90
7512;DHT22;9999;48.780;9.146;2022-08-19T08:06:41;19.60;99.90
7512;DHT22;9999;48.780;9.146;2022-08-19T08:09:30;19.60;99.90
7512;DHT22;9999;48.780;9.146;2022-08-19T08:12:01;19.60;99.90
7512;DHT22;9999;48.780;9.146;2022-08-19T08:14:29;19.60;99.90
7512;DHT22;9999;48.780;9.146;2022-08-19T08:16:57;19.50;99.90
7512;DHT22;9999;48.780;9.146;2022-08-19T08:19:26;19.60;99.90
7512;DHT22;9999;48.780;9.146;2022-08-19T08:21:56;19.60;99.90
7512;DHT22;9999;48.780;9.146;2022-08-19T08:24:23;19.60;99.90
7512;DHT22;9999;48.780;9.146;2022-08-19T08:26:51;19.60;99.90
7512;DHT22;9999;48.780;9.146;2022-08-19T08:29:19;19.60;99.90
7512;DHT22;9999;48.780;9.146;2022-08-19T08:31:46;19.60;99.90
7512;DHT22;9999;48.780;9.146;2022-08-19T08:34:14;19.60;99.90
7512;DHT22;9999;48.780;9.146;2022-08-19T08:36:44;19.70;99.90
7512;DHT22;9999;48.780;9.146;2022-08-19T08:39:13;19.70;99.90
7512;DHT22;9999;48.780;9.146;2022-08-19T08:41:45;19.70;99.90
7512;DHT22;9999;48.780;9.146;2022-08-19T08:44:18;19.60;99.90
7512;DHT22;9999;48.780;9.146;2022-08-19T08:46:49;19.70;99.90
7512;DHT22;9999;48.780;9.146;2022-08-19T08:49:26;19.70;99.90
7512;DHT22;9999;48.780;9.146;2022-08-19T08:51:59;19.70;99.90
7512;DHT22;9999;48.780;9.146;2022-08-19T08:54:32;19.70;99.90
7512;DHT22;9999;48.780;9.146;2022-08-19T08:56:59;19.60;99.90
7512;DHT22;9999;48.780;9.146;2022-08-19T08:59:30;19.70;99.90
7512;DHT22;9999;48.780;9.146;2022-08-19T09:01:58;19.70;99.90
7512;DHT22;9999;48.780;9.146;2022-08-19T09:04:26;19.70;99.90
7512;DHT22;9999;48.780;9.146;2022-08-19T09:07:00;19.70;99.90
7512;DHT22;9999;48.780;9.146;2022-08-19T09:09:36;19.70;99.90
7512;DHT22;9999;48.780;9.146;2022-08-19T09:12:13;19.70;99.90
7512;DHT22;9999;48.780;9.146;2022-08-19T09:14:47;19.70;99.90
7512;DHT22;9999;48.780;9.146;2022-08-19T09:17:16;19.70;99.90
7512;DHT22;9999;48.780;9.146;2022-08-19T09:19:52;19.70;99.90
7512;DHT22;9999;48.780;9.146;2022-08-19T09:22:20;19.70;99.90
7512;DHT22;9999;48.780;9.146;2022-08-19T09:24:48;19.80;99.90
7512;DHT22;9999;48.780;9.146;2022-08-19T09:27:16;19.90;99.90
7512;DHT22;9999;48.780;9.146;2022-08-19T09:29:43;19.90;99.90
7512;DHT22;9999;48.780;9.146;2022-08-19T09:32:11;20.00;99.90
7512;DHT22;9999;48.780;9.146;2022-08-19T09:34:37;20.10;99.90
7512;DHT22;9999;48.780;9.146;2022-08-19T09:37:07;20.10;99.90
7512;DHT22;9999;48.780;9.146;2022-08-19T09:39:34;20.10;99.90
7512;DHT22;9999;48.780;9.146;2022-08-19T09:42:01;20.10;99.90
7512;DHT22;9999;48.780;9.146;2022-08-19T09:44:29;20.20;99.90
7512;DHT22;9999;48.780;9.146;2022-08-19T09:46:55;20.30;99.90
7512;DHT22;9999;48.780;9.146;2022-08-19T09:49:23;20.30;99.90
7512;DHT22;9999;48.780;9.146;2022-08-19T09:51:51;20.40;99.90
7512;DHT22;9999;48.780;9.146;2022-08-19T09:54:21;20.40;99.90
7512;DHT22;9999;48.780;9.146;2022-08-19T09:56:48;20.50;99.90
7512;DHT22;9999;48.780;9.146;2022-08-19T09:59:15;20.50;99.90
7512;DHT22;9999;48.780;9.146;2022-08-19T10:01:42;20.60;99.90
7512;DHT22;9999;48.780;9.146;2022-08-19T10:04:09;20.60;99.90
7512;DHT22;9999;48.780;9.146;2022-08-19T10:06:38;20.60;99.90
7512;DHT22;9999;48.780;9.146;2022-08-19T10:09:09;20.60;99.90
7512;DHT22;9999;48.780;9.146;2022-08-19T10:11:39;20.60;99.90
7512;DHT22;9999;48.780;9.146;2022-08-19T10:14:06;20.70;99.90
7512;DHT22;9999;48.780;9.146;2022-08-19T10:16:35;20.70;99.90
7512;DHT22;9999;48.780;9.146;2022-08-19T10:19:02;20.70;99.90
7512;DHT22;9999;48.780;9.146;2022-08-19T10:21:31;20.70;99.90
7512;DHT22;9999;48.780;9.146;2022-08-19T10:24:01;20.80;99.90
7512;DHT22;9999;48.780;9.146;2022-08-19T10:26:30;20.80;99.90
7512;DHT22;9999;48.780;9.146;2022-08-19T10:28:58;20.90;99.90
7512;DHT22;9999;48.780;9.146;2022-08-19T10:31:30;20.90;99.90
7512;DHT22;9999;48.780;9.146;2022-08-19T10:33:58;20.90;99.90
7512;DHT22;9999;48.780;9.146;2022-08-19T10:36:27;20.90;99.90
7512;DHT22;9999;48.780;9.146;2022-08-19T10:38:56;21.00;99.90
7512;DHT22;9999;48.780;9.146;2022-08-19T10:41:27;21.00;99.90
7512;DHT22;9999;48.780;9.146;2022-08-19T10:43:56;21.00;99.90
7512;DHT22;9999;48.780;9.146;2022-08-19T10:46:25;21.10;99.90
7512;DHT22;9999;48.780;9.146;2022-08-19T10:48:53;21.10;99.90
7512;DHT22;9999;48.780;9.146;2022-08-19T10:51:21;21.10;99.90
7512;DHT22;9999;48.780;9.146;2022-08-19T10:54:06;21.10;99.90
7512;DHT22;9999;48.780;9.146;2022-08-19T10:56:34;21.20;99.90
7512;DHT22;9999;48.780;9.146;2022-08-19T10:59:20;21.30;99.90
7512;DHT22;9999;48.780;9.146;2022-08-19T11:01:48;21.30;99.90
7512;DHT22;9999;48.780;9.146;2022-08-19T11:04:16;21.30;99.90
7512;DHT22;9999;48.780;9.146;2022-08-19T11:06:43;21.30;99.90
7512;DHT22;9999;48.780;9.146;2022-08-19T11:09:13;21.30;99.90
7512;DHT22;9999;48.780;9.146;2022-08-19T11:11:42;21.30;99.90
7512;DHT22;9999;48.780;9.146;2022-08-19T11:14:10;21.40;99.90
7512;DHT22;9999;48.780;9.146;2022-08-19T11:16:38;21.40;99.90
7512;DHT22;9999;48.780;9.146;2022-08-19T11:19:07;21.40;99.90
7512;DHT22;9999;48.780;9.146;2022-08-19T11:21:37;21.50;99.90
7512;DHT22;9999;48.780;9.146;2022-08-19T11:24:07;21.50;99.90
7512;DHT22;9999;48.780;9.146;2022-08-19T11:26:34;21.60;99.90
7512;DHT22;9999;48.780;9.146;2022-08-19T11:29:04;21.70;99.90
7512;DHT22;9999;48.780;9.146;2022-08-19T11:31:33;21.70;99.90
7512;DHT22;9999;48.780;9.146;2022-08-19T11:34:03;21.80;99.90
7512;DHT22;9999;48.780;9.146;2022-08-19T11:36:31;21.90;99.90
7512;DHT22;9999;48.780;9.146;2022-08-19T11:38:58;21.90;99.90
7512;DHT22;9999;48.780;9.146;2022-08-19T11:41:26;21.90;99.90
7512;DHT22;9999;48.780;9.146;2022-08-19T11:43:55;22.00;99.90
7512;DHT22;9999;48.780;9.146;2022-08-19T11:46:25;22.00;99.90
7512;DHT22;9999;48.780;9.146;2022-08-19T11:48:54;22.10;99.90
7512;DHT22;9999;48.780;9.146;2022-08-19T11:51:23;22.20;99.90
7512;DHT22;9999;48.780;9.146;2022-08-19T11:53:50;22.20;99.90
7512;DHT22;9999;48.780;9.146;2022-08-19T11:56:18;22.20;99.90
7512;DHT22;9999;48.780;9.146;2022-08-19T11:58:45;22.20;99.90
7512;DHT22;9999;48.780;9.146;2022-08-19T12:01:14;22.20;99.90
7512;DHT22;9999;48.780;9.146;2022-08-19T12:03:43;22.20;99.90
7512;DHT22;9999;48.780;9.146;2022-08-19T12:06:13;22.30;99.90
7512;DHT22;9999;48.780;9.146;2022-08-19T12:08:41;22.30;99.90
7512;DHT22;9999;48.780;9.146;2022-08-19T12:11:09;22.30;99.90
7512;DHT22;9999;48.780;9.146;2022-08-19T12:13:37;22.30;99.90
7512;DHT22;9999;48.780;9.146;2022-08-19T12:16:08;22.40;99.90
7512;DHT22;9999;48.780;9.146;2022-08-19T12:18:36;22.40;99.90
7512;DHT22;9999;48.780;9.146;2022-08-19T12:21:04;22.40;99.90
7512;DHT22;9999;48.780;9.146;2022-08-19T12:23:31;22.40;99.90
7512;DHT22;9999;48.780;9.146;2022-08-19T12:25:58;22.50;99.90
7512;DHT22;9999;48.780;9.146;2022-08-19T12:28:25;22.50;99.90
7512;DHT22;9999;48.780;9.146;2022-08-19T12:30:52;22.40;99.90
7512;DHT22;9999;48.780;9.146;2022-08-19T12:33:19;22.50;99.90
7512;DHT22;9999;48.780;9.146;2022-08-19T12:35:49;22.40;99.90
7512;DHT22;9999;48.780;9.146;2022-08-19T12:38:18;22.50;99.90
7512;DHT22;9999;48.780;9.146;2022-08-19T12:40:45;22.50;99.90
7512;DHT22;9999;48.780;9.146;2022-08-19T12:43:12;22.50;99.90
7512;DHT22;9999;48.780;9.146;2022-08-19T12:45:41;22.50;99.90
7512;DHT22;9999;48.780;9.146;2022-08-19T12:48:09;22.50;99.90
7512;DHT22;9999;48.780;9.146;2022-08-19T12:50:38;22.50;99.90
7512;DHT22;9999;48.780;9.146;2022-08-19T12:53:05;22.50;99.90
7512;DHT22;9999;48.780;9.146;2022-08-19T12:55:33;22.40;99.90
7512;DHT22;9999;48.780;9.146;2022-08-19T12:58:00;22.50;99.90
7512;DHT22;9999;48.780;9.146;2022-08-19T13:00:28;22.60;99.90
7512;DHT22;9999;48.780;9.146;2022-08-19T13:02:58;22.60;99.90
7512;DHT22;9999;48.780;9.146;2022-08-19T13:05:27;22.70;99.90
7512;DHT22;9999;48.780;9.146;2022-08-19T13:07:56;22.60;99.90
7512;DHT22;9999;48.780;9.146;2022-08-19T13:10:27;22.60;99.90
7512;DHT22;9999;48.780;9.146;2022-08-19T13:12:55;22.60;99.90
7512;DHT22;9999;48.780;9.146;2022-08-19T13:15:23;22.60;99.90
7512;DHT22;9999;48.780;9.146;2022-08-19T13:17:51;22.70;99.90
7512;DHT22;9999;48.780;9.146;2022-08-19T13:20:19;22.70;99.90
7512;DHT22;9999;48.780;9.146;2022-08-19T13:22:47;22.60;99.90
7512;DHT22;9999;48.780;9.146;2022-08-19T13:25:15;22.60;99.90
7512;DHT22;9999;48.780;9.146;2022-08-19T13:27:45;22.60;99.90
7512;DHT22;9999;48.780;9.146;2022-08-19T13:30:15;22.60;99.90
7512;DHT22;9999;48.780;9.146;2022-08-19T13:33:00;22.50;99.90
7512;DHT22;9999;48.780;9.146;2022-08-19T13:35:44;22.50;99.90
7512;DHT22;9999;48.780;9.146;2022-08-19T13:38:12;22.60;99.90
7512;DHT22;9999;48.780;9.146;2022-08-19T13:40:40;22.40;99.90
7512;DHT22;9999;48.780;9.146;2022-08-19T13:43:08;22.30;99.90
7512;DHT22;9999;48.780;9.146;2022-08-19T13:45:37;22.30;99.90
7512;DHT22;9999;48.780;9.146;2022-08-19T13:48:05;22.20;99.90
7512;DHT22;9999;48.780;9.146;2022-08-19T13:50:35;22.10;99.90
7512;DHT22;9999;48.780;9.146;2022-08-19T13:53:05;22.00;99.90
7512;DHT22;9999;48.780;9.146;2022-08-19T13:55:32;21.90;99.90
7512;DHT22;9999;48.780;9.146;2022-08-19T13:57:59;22.00;99.90
7512;DHT22;9999;48.780;9.146;2022-08-19T14:00:29;22.00;99.90
7512;DHT22;9999;48.780;9.146;2022-08-19T14:02:58;21.90;99.90
7512;DHT22;9999;48.780;9.146;2022-08-19T14:05:26;21.70;99.90
7512;DHT22;9999;48.780;9.146;2022-08-19T14:07:54;21.60;99.90
7512;DHT22;9999;48.780;9.146;2022-08-19T14:10:22;21.50;99.90
7512;DHT22;9999;48.780;9.146;2022-08-19T14:12:51;21.50;99.90
7512;DHT22;9999;48.780;9.146;2022-08-19T14:15:19;21.10;99.90
7512;DHT22;9999;48.780;9.146;2022-08-19T14:17:46;21.00;99.90
7512;DHT22;9999;48.780;9.146;2022-08-19T14:20:16;21.10;99.90
7512;DHT22;9999;48.780;9.146;2022-08-19T14:22:44;21.20;99.90
7512;DHT22;9999;48.780;9.146;2022-08-19T14:25:14;21.40;99.90
7512;DHT22;9999;48.780;9.146;2022-08-19T14:27:42;21.50;99.90
7512;DHT22;9999;48.780;9.146;2022-08-19T14:30:11;21.50;99.90
7512;DHT22;9999;48.780;9.146;2022-08-19T14:32:39;21.50;99.90
7512;DHT22;9999;48.780;9.146;2022-08-19T14:35:09;21.50;99.90
7512;DHT22;9999;48.780;9.146;2022-08-19T14:37:39;21.60;99.90
7512;DHT22;9999;48.780;9.146;2022-08-19T14:40:08;21.60;99.90
7512;DHT22;9999;48.780;9.146;2022-08-19T14:42:35;21.50;99.90
7512;DHT22;9999;48.780;9.146;2022-08-19T14:45:02;21.60;99.90
7512;DHT22;9999;48.780;9.146;2022-08-19T14:47:30;21.60;99.90
7512;DHT22;9999;48.780;9.146;2022-08-19T14:49:57;21.70;99.90
7512;DHT22;9999;48.780;9.146;2022-08-19T14:52:24;21.80;99.90
7512;DHT22;9999;48.780;9.146;2022-08-19T14:54:53;21.80;99.90
7512;DHT22;9999;48.780;9.146;2022-08-19T14:57:19;21.90;99.90
7512;DHT22;9999;48.780;9.146;2022-08-19T14:59:46;21.90;99.90
7512;DHT22;9999;48.780;9.146;2022-08-19T15:02:13;21.90;99.90
7512;DHT22;9999;48.780;9.146;2022-08-19T15:04:40;21.80;99.90
7512;DHT22;9999;48.780;9.146;2022-08-19T15:07:06;21.80;99.90
7512;DHT22;9999;48.780;9.146;2022-08-19T15:09:33;21.90;99.90
7512;DHT22;9999;48.780;9.146;2022-08-19T15:12:02;22.00;99.90
7512;DHT22;9999;48.780;9.146;2022-08-19T15:14:30;22.00;99.90
7512;DHT22;9999;48.780;9.146;2022-08-19T15:17:00;22.10;99.90
7512;DHT22;9999;48.780;9.146;2022-08-19T15:19:28;22.20;99.90
7512;DHT22;9999;48.780;9.146;2022-08-19T15:21:54;22.20;99.90
7512;DHT22;9999;48.780;9.146;2022-08-19T15:24:21;22.30;99.90
7512;DHT22;9999;48.780;9.146;2022-08-19T15:26:51;22.40;99.90
7512;DHT22;9999;48.780;9.146;2022-08-19T15:29:19;22.50;99.90
7512;DHT22;9999;48.780;9.146;2022-08-19T15:31:50;22.50;99.90
7512;DHT22;9999;48.780;9.146;2022-08-19T15:34:17;22.50;99.90
7512;DHT22;9999;48.780;9.146;2022-08-19T15:36:44;22.50;99.90
7512;DHT22;9999;48.780;9.146;2022-08-19T15:39:11;22.50;99.90
7512;DHT22;9999;48.780;9.146;2022-08-19T15:41:37;22.50;99.90
7512;DHT22;9999;48.780;9.146;2022-08-19T15:44:07;22.50;99.90
7512;DHT22;9999;48.780;9.146;2022-08-19T15:46:38;22.50;99.90
7512;DHT22;9999;48.780;9.146;2022-08-19T15:49:06;22.60;99.90
7512;DHT22;9999;48.780;9.146;2022-08-19T15:51:35;22.60;99.90
7512;DHT22;9999;48.780;9.146;2022-08-19T15:54:05;22.70;99.90
7512;DHT22;9999;48.780;9.146;2022-08-19T15:56:33;22.60;99.90
7512;DHT22;9999;48.780;9.146;2022-08-19T15:59:26;22.60;99.90
7512;DHT22;9999;48.780;9.146;2022-08-19T16:02:12;22.70;99.90
7512;DHT22;9999;48.780;9.146;2022-08-19T16:04:56;22.70;99.90
7512;DHT22;9999;48.780;9.146;2022-08-19T16:07:41;22.70;99.90
7512;DHT22;9999;48.780;9.146;2022-08-19T16:10:08;22.80;99.90
7512;DHT22;9999;48.780;9.146;2022-08-19T16:12:36;22.90;99.90